Time;durP1;ratioP1;P1;durP2;ratioP2;P2;SDS_P1;SDS_P2;PMS_P1;PMS_P2;Temp;Humidity;BMP_temperature;BMP_pressure;BME280_temperature;BME280_humidity;BME280_pressure;Samples;Min_cycle;Max_cycle;Signal;HPM_P1;HPM_P2
2021/12/13 00:01:22;;;;;;;8.07;4.50;;;;;;;;;;4980318;28;20030;-92
2021/12/13 00:04:11;;;;;;;5.57;4.07;;;;;;;;;;4980411;28;20030;-89
2021/12/13 00:06:47;;;;;;;6.78;3.78;;;;;;;;;;4997229;28;20031;-91
2021/12/13 00:09:17;;;;;;;10.90;4.65;;;;;;;;;;5006456;28;20069;-91
2021/12/13 00:11:47;;;;;;;6.90;3.67;;;;;;;;;;4977548;28;20018;-91
2021/12/13 00:14:35;;;;;;;7.97;4.00;;;;;;;;;;4978527;28;20125;-91
2021/12/13 00:17:16;;;;;;;7.65;4.68;;;;;;;;;;4977898;28;20026;-90
2021/12/13 00:19:45;;;;;;;9.80;4.45;;;;;;;;;;4977565;28;20567;-90
2021/12/13 00:22:21;;;;;;;8.38;4.55;;;;;;;;;;4978195;28;20106;-91
2021/12/13 00:24:48;;;;;;;5.80;4.05;;;;;;;;;;4977578;28;20029;-91
2021/12/13 00:27:27;;;;;;;6.25;4.30;;;;;;;;;;4995293;28;20408;-90
2021/12/13 00:30:08;;;;;;;7.32;4.15;;;;;;;;;;4966877;28;20118;-91
2021/12/13 00:32:39;;;;;;;6.75;4.80;;;;;;;;;;4969779;28;20018;-91
2021/12/13 00:35:19;;;;;;;11.00;4.88;;;;;;;;;;4995672;28;20089;-90
2021/12/13 00:37:58;;;;;;;7.90;4.68;;;;;;;;;;4997176;28;20018;-95
2021/12/13 00:40:34;;;;;;;6.47;4.97;;;;;;;;;;4973034;28;20461;-90
2021/12/13 00:43:09;;;;;;;10.10;5.65;;;;;;;;;;4958786;28;20037;-91
2021/12/13 00:48:53;;;;;;;7.70;5.30;;;;;;;;;;4896651;29;20032;-90
2021/12/13 00:51:26;;;;;;;10.18;5.72;;;;;;;;;;4898731;29;20032;-91
2021/12/13 00:53:56;;;;;;;10.13;6.22;;;;;;;;;;4911233;29;20037;-91
2021/12/13 01:00:40;;;;;;;9.95;6.53;;;;;;;;;;4885922;29;20032;-91
2021/12/13 01:03:13;;;;;;;12.65;6.22;;;;;;;;;;4894420;29;20118;-92
2021/12/13 01:05:49;;;;;;;10.25;6.18;;;;;;;;;;5002146;28;20038;-90
2021/12/13 01:08:47;;;;;;;14.55;7.32;;;;;;;;;;4976979;28;20022;-92
2021/12/13 01:11:46;;;;;;;10.60;6.78;;;;;;;;;;4958338;28;20038;-93
2021/12/13 01:14:39;;;;;;;10.65;6.20;;;;;;;;;;4957031;28;20046;-91
2021/12/13 01:17:25;;;;;;;13.40;6.70;;;;;;;;;;4976923;28;20105;-92
2021/12/13 01:20:00;;;;;;;11.55;6.47;;;;;;;;;;4982823;28;20118;-90
2021/12/13 01:22:50;;;;;;;12.02;6.18;;;;;;;;;;4959462;28;20137;-91
2021/12/13 01:25:48;;;;;;;14.52;6.10;;;;;;;;;;4957033;28;20069;-91
2021/12/13 01:28:28;;;;;;;10.70;5.95;;;;;;;;;;4985943;28;20036;-91
2021/12/13 01:31:01;;;;;;;12.07;6.47;;;;;;;;;;4970575;28;20054;-91
2021/12/13 01:33:29;;;;;;;11.18;6.20;;;;;;;;;;4963682;28;20042;-91
2021/12/13 01:35:58;;;;;;;9.52;6.25;;;;;;;;;;4967539;28;20089;-92
2021/12/13 01:38:41;;;;;;;10.70;6.35;;;;;;;;;;4959680;28;20555;-91
2021/12/13 01:41:32;;;;;;;16.15;7.25;;;;;;;;;;4968993;28;20034;-92
2021/12/13 01:44:13;;;;;;;13.05;6.55;;;;;;;;;;4964358;28;20035;-91
2021/12/13 01:50:13;;;;;;;11.10;7.40;;;;;;;;;;4982253;28;20348;-91
2021/12/13 01:52:47;;;;;;;12.93;6.07;;;;;;;;;;4963528;28;20026;-91
2021/12/13 01:55:47;;;;;;;9.70;5.78;;;;;;;;;;4984791;28;20038;-92
2021/12/13 02:01:20;;;;;;;12.75;6.60;;;;;;;;;;4961928;28;20046;-91
2021/12/13 02:03:52;;;;;;;9.15;6.18;;;;;;;;;;4966343;28;20097;-91
2021/12/13 02:07:01;;;;;;;13.05;7.55;;;;;;;;;;4958060;28;20384;-91
2021/12/13 02:09:35;;;;;;;14.38;6.22;;;;;;;;;;4906542;28;20025;-92
2021/12/13 02:12:05;;;;;;;12.00;5.60;;;;;;;;;;4981186;28;20162;-91
2021/12/13 02:14:34;;;;;;;10.32;6.10;;;;;;;;;;4967032;28;20057;-93
2021/12/13 02:17:13;;;;;;;14.32;6.50;;;;;;;;;;4978397;28;20096;-90
2021/12/13 02:19:38;;;;;;;11.65;6.65;;;;;;;;;;4967249;28;20030;-90
2021/12/13 02:22:09;;;;;;;11.60;6.38;;;;;;;;;;4965111;28;20022;-90
2021/12/13 02:24:37;;;;;;;10.35;6.65;;;;;;;;;;4951599;28;20177;-90
2021/12/13 02:27:06;;;;;;;13.55;7.47;;;;;;;;;;4965703;28;20027;-91
2021/12/13 02:29:37;;;;;;;15.48;7.60;;;;;;;;;;4954739;29;20031;-90
2021/12/13 02:32:09;;;;;;;19.60;8.98;;;;;;;;;;4956321;28;20113;-90
2021/12/13 02:34:38;;;;;;;;;;;;;;;;;;4976523;28;20018;-91
2021/12/13 02:37:05;;;;;;;21.73;8.52;;;;;;;;;;4959348;28;19910;-91
2021/12/13 02:39:37;;;;;;;16.25;8.55;;;;;;;;;;4959636;28;20022;-91
2021/12/13 02:42:05;;;;;;;;;;;;;;;;;;4974498;28;20074;-91
2021/12/13 02:44:38;;;;;;;15.77;8.27;;;;;;;;;;4958172;28;19910;-92
2021/12/13 02:47:45;;;;;;;20.52;8.52;;;;;;;;;;4958413;28;20027;-91
2021/12/13 02:50:16;;;;;;;15.70;7.57;;;;;;;;;;4991741;28;20034;-91
2021/12/13 02:52:42;;;;;;;13.98;7.78;;;;;;;;;;4958436;28;20126;-91
2021/12/13 02:55:18;;;;;;;13.57;7.40;;;;;;;;;;4976703;28;20055;-91
2021/12/13 02:57:48;;;;;;;15.73;8.82;;;;;;;;;;4959778;28;20381;-91
2021/12/13 03:00:25;;;;;;;16.88;8.00;;;;;;;;;;4966858;28;20107;-91
2021/12/13 03:02:55;;;;;;;20.65;7.75;;;;;;;;;;4955678;28;20503;-91
2021/12/13 03:05:36;;;;;;;17.10;8.88;;;;;;;;;;4981630;28;20090;-91
2021/12/13 03:08:16;;;;;;;11.82;7.65;;;;;;;;;;4968886;28;20041;-92
2021/12/13 03:10:48;;;;;;;12.75;7.65;;;;;;;;;;4979408;28;20031;-91
2021/12/13 03:13:14;;;;;;;17.77;7.70;;;;;;;;;;4977149;28;20084;-92
2021/12/13 03:15:46;;;;;;;15.63;8.13;;;;;;;;;;4978351;28;20023;-91
2021/12/13 03:18:28;;;;;;;15.88;7.55;;;;;;;;;;4959879;28;20042;-91
2021/12/13 03:21:07;;;;;;;;;;;;;;;;;;4972325;28;20081;-92
2021/12/13 03:23:55;;;;;;;12.63;6.93;;;;;;;;;;4978767;28;19921;-93
2021/12/13 03:26:53;;;;;;;14.00;7.93;;;;;;;;;;4978754;28;20023;-93
2021/12/13 03:29:24;;;;;;;15.85;7.60;;;;;;;;;;4966046;28;20071;-91
2021/12/13 03:31:53;;;;;;;13.27;7.53;;;;;;;;;;4953981;28;20030;-91
2021/12/13 03:34:24;;;;;;;11.93;7.00;;;;;;;;;;4962923;28;20030;-91
2021/12/13 03:37:01;;;;;;;13.45;6.90;;;;;;;;;;4985803;28;20433;-91
2021/12/13 03:39:41;;;;;;;11.18;6.97;;;;;;;;;;4980121;28;20045;-92
2021/12/13 03:42:15;;;;;;;11.23;6.55;;;;;;;;;;4965475;28;20396;-92
2021/12/13 03:44:46;;;;;;;14.95;7.00;;;;;;;;;;4961321;28;20037;-91
2021/12/13 03:47:19;;;;;;;14.68;7.80;;;;;;;;;;4978781;28;20042;-92
2021/12/13 03:49:49;;;;;;;16.58;7.65;;;;;;;;;;4978602;28;20027;-92
2021/12/13 03:52:18;;;;;;;13.98;7.28;;;;;;;;;;4962718;28;20031;-92
2021/12/13 03:54:45;;;;;;;17.27;7.10;;;;;;;;;;4988778;28;20034;-92
2021/12/13 03:57:13;;;;;;;12.30;6.40;;;;;;;;;;4961010;28;20022;-92
2021/12/13 03:59:41;;;;;;;11.57;6.97;;;;;;;;;;4976722;28;20360;-92
2021/12/13 04:02:16;;;;;;;13.57;7.38;;;;;;;;;;4969853;28;20035;-92
2021/12/13 04:04:48;;;;;;;13.50;7.13;;;;;;;;;;4977487;28;20026;-92
2021/12/13 04:07:21;;;;;;;9.80;7.07;;;;;;;;;;4952233;28;20027;-92
2021/12/13 04:09:50;;;;;;;12.52;6.57;;;;;;;;;;4972675;28;20038;-92
2021/12/13 04:12:17;;;;;;;13.07;7.22;;;;;;;;;;4959710;28;20058;-92
2021/12/13 04:14:51;;;;;;;10.98;7.50;;;;;;;;;;4977812;28;20054;-92
2021/12/13 04:17:35;;;;;;;11.88;6.65;;;;;;;;;;4941002;29;20034;-92
2021/12/13 04:20:09;;;;;;;13.52;6.97;;;;;;;;;;4942780;28;20046;-92
2021/12/13 04:22:39;;;;;;;14.23;6.90;;;;;;;;;;4977545;28;20434;-92
2021/12/13 04:25:12;;;;;;;12.23;6.70;;;;;;;;;;4960260;28;20108;-92
2021/12/13 04:27:59;;;;;;;12.68;7.07;;;;;;;;;;4977250;28;20472;-92
2021/12/13 04:30:35;;;;;;;13.45;7.18;;;;;;;;;;4964743;28;20058;-91
2021/12/13 04:33:11;;;;;;;16.38;6.90;;;;;;;;;;4962738;28;20019;-92
2021/12/13 04:35:37;;;;;;;10.85;6.43;;;;;;;;;;4961891;28;20372;-92
2021/12/13 04:38:06;;;;;;;16.10;8.25;;;;;;;;;;4990997;28;20022;-91
2021/12/13 04:40:36;;;;;;;10.90;6.65;;;;;;;;;;4973483;28;20022;-92
2021/12/13 04:43:07;;;;;;;12.52;7.10;;;;;;;;;;4960414;28;20415;-92
2021/12/13 04:45:34;;;;;;;14.02;7.78;;;;;;;;;;4959381;28;20042;-92
2021/12/13 04:48:21;;;;;;;13.38;7.47;;;;;;;;;;4951421;28;20054;-91
2021/12/13 04:50:57;;;;;;;17.33;7.30;;;;;;;;;;4967919;28;20037;-91
2021/12/13 04:53:27;;;;;;;14.60;6.75;;;;;;;;;;4977468;28;20023;-91
2021/12/13 04:55:56;;;;;;;15.05;7.25;;;;;;;;;;4967742;28;20077;-91
2021/12/13 04:58:22;;;;;;;18.00;8.52;;;;;;;;;;4967816;28;20109;-91
2021/12/13 05:00:52;;;;;;;13.35;7.95;;;;;;;;;;4958792;28;20065;-91
2021/12/13 05:03:21;;;;;;;21.05;8.05;;;;;;;;;;4968680;28;20018;-92
2021/12/13 05:05:47;;;;;;;14.90;7.95;;;;;;;;;;4961204;28;20042;-93
2021/12/13 05:08:16;;;;;;;15.57;8.15;;;;;;;;;;4978918;28;20027;-92
2021/12/13 05:10:46;;;;;;;18.75;8.80;;;;;;;;;;4978248;28;20066;-93
2021/12/13 05:13:25;;;;;;;16.98;8.15;;;;;;;;;;4961036;28;20023;-93
2021/12/13 05:16:09;;;;;;;16.33;8.52;;;;;;;;;;4961398;28;20030;-92
2021/12/13 05:18:50;;;;;;;16.40;7.97;;;;;;;;;;4981903;28;20033;-92
2021/12/13 05:21:30;;;;;;;18.52;8.60;;;;;;;;;;4943310;29;20037;-93
2021/12/13 05:24:02;;;;;;;16.52;8.75;;;;;;;;;;4929537;29;20031;-94
2021/12/13 05:26:30;;;;;;;14.70;7.70;;;;;;;;;;4941901;29;20031;-93
2021/12/13 05:28:57;;;;;;;14.95;8.00;;;;;;;;;;4958728;28;20144;-93
2021/12/13 05:31:25;;;;;;;12.55;7.53;;;;;;;;;;4971986;28;20138;-92
2021/12/13 05:33:59;;;;;;;16.48;8.00;;;;;;;;;;4958607;28;20629;-91
2021/12/13 05:36:29;;;;;;;18.42;8.65;;;;;;;;;;4958581;28;20023;-91
2021/12/13 05:39:12;;;;;;;15.77;8.40;;;;;;;;;;4956815;28;20054;-91
2021/12/13 05:42:27;;;;;;;18.63;8.05;;;;;;;;;;4956846;28;20034;-90
2021/12/13 05:49:15;;;;;;;14.88;7.78;;;;;;;;;;4903916;29;20031;-91
2021/12/13 05:52:37;;;;;;;17.02;7.72;;;;;;;;;;4862349;29;20041;-92
2021/12/13 06:22:56;;;;;;;16.40;7.80;;;;;;;;;;4860142;29;20364;-91
2021/12/13 06:25:36;;;;;;;17.30;8.57;;;;;;;;;;4889170;29;20131;-91
2021/12/13 06:39:28;;;;;;;;;;;;;;;;;;;;;
2021/12/13 06:42:00;;;;;;;13.90;7.60;;;;;;;;;;4859028;23;20136;-85
2021/12/13 06:44:29;;;;;;;16.70;7.93;;;;;;;;;;4995191;28;20026;-87
2021/12/13 06:47:07;;;;;;;20.17;7.57;;;;;;;;;;4973826;28;20037;-88
2021/12/13 06:49:41;;;;;;;15.25;7.95;;;;;;;;;;4991129;28;20438;-87
2021/12/13 06:52:21;;;;;;;16.38;7.50;;;;;;;;;;4996657;28;20313;-85
2021/12/13 06:55:01;;;;;;;12.45;7.90;;;;;;;;;;4967094;28;20062;-87
2021/12/13 06:57:29;;;;;;;15.13;8.35;;;;;;;;;;4953125;28;20121;-88
2021/12/13 06:59:57;;;;;;;18.42;7.88;;;;;;;;;;4966784;28;20399;-88
2021/12/13 07:02:27;;;;;;;11.98;8.15;;;;;;;;;;4979903;28;20026;-85
2021/12/13 07:05:06;;;;;;;11.95;7.60;;;;;;;;;;4951149;28;20081;-86
2021/12/13 07:07:48;;;;;;;16.45;7.97;;;;;;;;;;4982134;28;20022;-88
2021/12/13 07:10:19;;;;;;;17.02;8.27;;;;;;;;;;4953519;28;20023;-87
2021/12/13 07:12:50;;;;;;;13.38;8.10;;;;;;;;;;4971218;28;20030;-85
2021/12/13 07:15:28;;;;;;;14.88;8.55;;;;;;;;;;4976019;28;20022;-86
2021/12/13 07:18:18;;;;;;;15.75;8.38;;;;;;;;;;4990547;28;20097;-85
2021/12/13 07:20:49;;;;;;;15.10;7.80;;;;;;;;;;4963577;28;20070;-86
2021/12/13 07:23:15;;;;;;;19.50;8.13;;;;;;;;;;4981943;28;20030;-88
2021/12/13 07:25:45;;;;;;;18.90;8.82;;;;;;;;;;4963771;28;20400;-87
2021/12/13 07:28:11;;;;;;;15.38;8.48;;;;;;;;;;4988728;28;20026;-87
2021/12/13 07:30:38;;;;;;;16.38;8.55;;;;;;;;;;4966806;28;20023;-85
2021/12/13 07:33:07;;;;;;;15.23;8.57;;;;;;;;;;4967027;28;20031;-87
2021/12/13 07:35:41;;;;;;;15.20;8.32;;;;;;;;;;4959682;28;20037;-87
2021/12/13 07:38:20;;;;;;;16.55;9.38;;;;;;;;;;4985774;28;20027;-84
2021/12/13 07:40:56;;;;;;;21.30;9.45;;;;;;;;;;4982261;28;20023;-85
2021/12/13 07:43:23;;;;;;;20.90;9.43;;;;;;;;;;4971306;28;20026;-86
2021/12/13 07:46:01;;;;;;;26.08;10.27;;;;;;;;;;4977149;28;20432;-85
2021/12/13 07:48:26;;;;;;;19.00;9.07;;;;;;;;;;4983839;28;20018;-87
2021/12/13 07:51:15;;;;;;;18.65;8.70;;;;;;;;;;4982762;28;20030;-85
2021/12/13 07:54:02;;;;;;;14.18;8.40;;;;;;;;;;4942622;28;20035;-85
2021/12/13 07:56:27;;;;;;;16.80;9.55;;;;;;;;;;4972854;28;20102;-84
2021/12/13 07:59:18;;;;;;;18.25;10.65;;;;;;;;;;4979094;28;20062;-88
2021/12/13 08:01:53;;;;;;;16.02;9.43;;;;;;;;;;4969862;28;20109;-89
2021/12/13 08:04:26;;;;;;;21.70;10.13;;;;;;;;;;4977456;28;20027;-86
2021/12/13 08:06:55;;;;;;;21.70;10.75;;;;;;;;;;4986581;28;20556;-88
2021/12/13 08:09:24;;;;;;;18.80;10.27;;;;;;;;;;4964110;28;20038;-85
2021/12/13 08:11:52;;;;;;;20.58;9.80;;;;;;;;;;4983329;28;20034;-86
2021/12/13 08:14:28;;;;;;;23.10;9.73;;;;;;;;;;4980217;28;20400;-87
2021/12/13 08:16:53;;;;;;;21.02;10.30;;;;;;;;;;4956036;28;20086;-86
2021/12/13 08:19:24;;;;;;;16.98;9.40;;;;;;;;;;4988995;28;20506;-89
2021/12/13 08:22:00;;;;;;;17.95;9.88;;;;;;;;;;4977188;28;20050;-87
2021/12/13 08:24:38;;;;;;;19.48;10.43;;;;;;;;;;4983201;28;20032;-87
2021/12/13 08:27:20;;;;;;;20.77;9.85;;;;;;;;;;4986821;28;20034;-86
2021/12/13 08:29:46;;;;;;;20.50;9.88;;;;;;;;;;4961027;28;20301;-88
2021/12/13 08:32:18;;;;;;;19.20;9.85;;;;;;;;;;4958606;28;20047;-86
2021/12/13 08:34:49;;;;;;;17.77;9.25;;;;;;;;;;4980089;28;20109;-86
2021/12/13 08:37:17;;;;;;;21.00;10.45;;;;;;;;;;4996406;28;20033;-85
2021/12/13 08:39:43;;;;;;;16.83;9.88;;;;;;;;;;5005746;28;20015;-86
2021/12/13 08:42:16;;;;;;;18.02;9.70;;;;;;;;;;4992561;28;20026;-85
2021/12/13 08:45:03;;;;;;;21.15;10.68;;;;;;;;;;4979934;28;20026;-85
2021/12/13 08:47:45;;;;;;;15.85;9.68;;;;;;;;;;4978589;28;20018;-85
2021/12/13 08:50:17;;;;;;;18.02;9.98;;;;;;;;;;4961019;28;20022;-85
2021/12/13 08:52:45;;;;;;;17.07;9.73;;;;;;;;;;4974429;28;20067;-85
2021/12/13 08:55:10;;;;;;;18.95;10.10;;;;;;;;;;4982943;28;20099;-85
2021/12/13 08:57:54;;;;;;;21.38;9.15;;;;;;;;;;4986764;28;20038;-86
2021/12/13 09:00:35;;;;;;;20.00;10.25;;;;;;;;;;4971369;28;20181;-85
2021/12/13 09:03:22;;;;;;;25.15;11.50;;;;;;;;;;4973094;28;20052;-84
2021/12/13 09:06:32;;;;;;;18.58;9.57;;;;;;;;;;4958671;28;20038;-84
2021/12/13 09:09:14;;;;;;;23.65;10.07;;;;;;;;;;4919037;28;20043;-85
2021/12/13 09:11:39;;;;;;;19.67;10.88;;;;;;;;;;4973141;28;20026;-86
2021/12/13 09:14:07;;;;;;;18.52;10.15;;;;;;;;;;4953090;28;20074;-85
2021/12/13 09:16:45;;;;;;;18.20;10.05;;;;;;;;;;4969690;28;20385;-87
2021/12/13 09:19:27;;;;;;;20.13;11.13;;;;;;;;;;4968917;28;20011;-87
2021/12/13 09:21:58;;;;;;;20.15;11.07;;;;;;;;;;4970628;28;20022;-86
2021/12/13 09:24:37;;;;;;;21.67;10.65;;;;;;;;;;4968970;28;20030;-86
2021/12/13 09:27:09;;;;;;;18.60;10.23;;;;;;;;;;4975824;28;20031;-86
2021/12/13 09:29:52;;;;;;;20.90;10.25;;;;;;;;;;4993494;28;20018;-87
2021/12/13 09:32:19;;;;;;;16.65;9.35;;;;;;;;;;4974421;28;20598;-85
2021/12/13 09:34:45;;;;;;;16.65;9.32;;;;;;;;;;4973458;28;20476;-86
2021/12/13 09:37:12;;;;;;;18.52;9.40;;;;;;;;;;4982211;28;20029;-86
2021/12/13 09:39:37;;;;;;;19.15;10.32;;;;;;;;;;4986482;28;20041;-86
2021/12/13 09:42:15;;;;;;;18.70;9.65;;;;;;;;;;4939256;28;20034;-85
2021/12/13 09:44:55;;;;;;;19.40;10.07;;;;;;;;;;4977144;28;20031;-86
2021/12/13 09:47:34;;;;;;;16.27;9.93;;;;;;;;;;4975354;28;20481;-85
2021/12/13 09:50:12;;;;;;;18.25;10.30;;;;;;;;;;4986016;28;20019;-85
2021/12/13 09:52:44;;;;;;;18.33;10.07;;;;;;;;;;4981102;28;20615;-86
2021/12/13 09:55:14;;;;;;;20.58;11.15;;;;;;;;;;4977386;28;20030;-86
2021/12/13 09:58:02;;;;;;;17.90;9.55;;;;;;;;;;4985010;28;20033;-86
2021/12/13 10:00:43;;;;;;;17.45;9.65;;;;;;;;;;4954643;28;20022;-85
2021/12/13 10:03:13;;;;;;;20.92;9.45;;;;;;;;;;4971668;28;20018;-85
2021/12/13 10:05:43;;;;;;;21.63;9.38;;;;;;;;;;4980146;28;20026;-86
2021/12/13 10:08:13;;;;;;;22.33;11.23;;;;;;;;;;4982721;28;20029;-86
2021/12/13 10:10:47;;;;;;;20.73;10.07;;;;;;;;;;4972756;28;20100;-86
2021/12/13 10:13:21;;;;;;;20.13;9.10;;;;;;;;;;4961781;28;20182;-85
2021/12/13 10:15:53;;;;;;;21.95;10.20;;;;;;;;;;4959279;28;20044;-86
2021/12/13 10:18:23;;;;;;;17.50;9.75;;;;;;;;;;4973790;28;20040;-85
2021/12/13 10:20:57;;;;;;;22.27;10.00;;;;;;;;;;4963903;28;20042;-85
2021/12/13 10:23:28;;;;;;;26.35;10.80;;;;;;;;;;4965726;28;20023;-86
2021/12/13 10:25:58;;;;;;;20.65;10.57;;;;;;;;;;4982454;28;20033;-86
2021/12/13 10:28:32;;;;;;;20.27;10.70;;;;;;;;;;4970934;28;20388;-85
2021/12/13 10:31:14;;;;;;;18.95;10.73;;;;;;;;;;4962073;28;20063;-84
2021/12/13 10:33:40;;;;;;;19.35;9.57;;;;;;;;;;4969890;28;20026;-86
2021/12/13 10:36:07;;;;;;;20.58;10.23;;;;;;;;;;4968179;28;20039;-86
2021/12/13 10:38:40;;;;;;;19.23;10.60;;;;;;;;;;4974720;28;20062;-86
2021/12/13 10:41:19;;;;;;;19.67;10.52;;;;;;;;;;4976524;28;20027;-85
2021/12/13 10:43:50;;;;;;;20.38;10.68;;;;;;;;;;4971778;28;20113;-86
2021/12/13 10:46:21;;;;;;;17.83;10.73;;;;;;;;;;4966913;28;20080;-85
2021/12/13 10:48:52;;;;;;;19.67;11.05;;;;;;;;;;4956174;28;20035;-85
2021/12/13 10:51:22;;;;;;;22.88;10.73;;;;;;;;;;4953749;28;20034;-86
2021/12/13 10:53:49;;;;;;;22.13;11.48;;;;;;;;;;4963113;28;20031;-86
2021/12/13 10:56:32;;;;;;;23.55;10.65;;;;;;;;;;4969580;28;20033;-86
2021/12/13 10:59:00;;;;;;;19.85;10.95;;;;;;;;;;4969564;28;20038;-87
2021/12/13 11:01:33;;;;;;;19.42;10.13;;;;;;;;;;4990104;28;20026;-86
2021/12/13 11:04:03;;;;;;;22.73;11.30;;;;;;;;;;4963411;28;20419;-85
2021/12/13 11:06:29;;;;;;;21.75;10.93;;;;;;;;;;4967300;28;20030;-85
2021/12/13 11:08:56;;;;;;;22.00;11.10;;;;;;;;;;4961798;28;20031;-86
2021/12/13 11:11:26;;;;;;;28.20;12.68;;;;;;;;;;4978692;28;20109;-87
2021/12/13 11:13:57;;;;;;;23.63;11.70;;;;;;;;;;4975947;28;20035;-87
2021/12/13 11:16:30;;;;;;;21.88;10.82;;;;;;;;;;4983810;28;20035;-87
2021/12/13 11:18:55;;;;;;;;;;;;;;;;;;4960694;28;20054;-84
2021/12/13 11:21:32;;;;;;;23.45;10.85;;;;;;;;;;4979536;28;19910;-87
2021/12/13 11:23:58;;;;;;;23.45;12.88;;;;;;;;;;4963926;28;20057;-84
2021/12/13 11:26:31;;;;;;;26.35;12.70;;;;;;;;;;4955903;28;20026;-86
2021/12/13 11:28:58;;;;;;;28.80;12.95;;;;;;;;;;4965989;28;20030;-86
2021/12/13 11:31:30;;;;;;;21.98;11.18;;;;;;;;;;4957342;28;20023;-85
2021/12/13 11:34:01;;;;;;;23.45;12.27;;;;;;;;;;4959124;28;20477;-86
2021/12/13 11:37:04;;;;;;;23.90;12.07;;;;;;;;;;4966835;28;20035;-86
2021/12/13 11:39:56;;;;;;;27.30;12.50;;;;;;;;;;4972910;28;20073;-87
2021/12/13 11:43:03;;;;;;;25.55;12.45;;;;;;;;;;4964681;28;20027;-86
2021/12/13 11:45:55;;;;;;;21.88;10.80;;;;;;;;;;4960230;28;20084;-87
2021/12/13 11:48:39;;;;;;;;;;;;;;;;;;4970561;28;20026;-85
2021/12/13 11:51:42;;;;;;;22.88;11.43;;;;;;;;;;4959782;28;20353;-87
2021/12/13 11:54:32;;;;;;;26.45;12.40;;;;;;;;;;4970941;28;20627;-86
2021/12/13 11:57:53;;;;;;;19.05;10.75;;;;;;;;;;4962271;28;20568;-86
2021/12/13 12:00:47;;;;;;;19.98;11.13;;;;;;;;;;4887392;29;20025;-86
2021/12/13 12:04:06;;;;;;;20.48;10.45;;;;;;;;;;4977956;28;20034;-86
2021/12/13 12:06:46;;;;;;;20.10;10.55;;;;;;;;;;4957650;28;20022;-86
2021/12/13 12:09:52;;;;;;;23.15;10.75;;;;;;;;;;4982814;28;20031;-86
2021/12/13 12:12:52;;;;;;;15.48;9.15;;;;;;;;;;4936373;28;20058;-86
2021/12/13 12:15:19;;;;;;;18.77;9.20;;;;;;;;;;4958072;28;20027;-85
2021/12/13 12:17:45;;;;;;;20.83;10.20;;;;;;;;;;4969845;28;20058;-85
2021/12/13 12:20:20;;;;;;;22.85;9.82;;;;;;;;;;4971598;28;20110;-85
2021/12/13 12:22:55;;;;;;;22.95;10.38;;;;;;;;;;4981017;28;20023;-85
2021/12/13 12:25:24;;;;;;;19.38;10.88;;;;;;;;;;4978153;28;20023;-85
2021/12/13 12:27:56;;;;;;;16.65;9.93;;;;;;;;;;4970082;28;20026;-86
2021/12/13 12:30:26;;;;;;;20.95;10.13;;;;;;;;;;4980001;28;20019;-86
2021/12/13 12:32:58;;;;;;;16.30;8.93;;;;;;;;;;4977168;28;20058;-84
2021/12/13 12:35:30;;;;;;;17.52;8.40;;;;;;;;;;4985027;28;20419;-86
2021/12/13 12:38:50;;;;;;;16.10;8.82;;;;;;;;;;4964958;28;20074;-85
2021/12/13 12:41:46;;;;;;;15.60;8.35;;;;;;;;;;4944858;28;20022;-84
2021/12/13 12:46:41;;;;;;;14.55;8.10;;;;;;;;;;4958230;28;20047;-84
2021/12/13 12:52:06;;;;;;;10.82;7.20;;;;;;;;;;4924484;29;20078;-85
2021/12/13 12:55:12;;;;;;;13.68;6.95;;;;;;;;;;4922394;29;20118;-85
2021/12/13 12:57:39;;;;;;;10.80;6.78;;;;;;;;;;4881923;29;20045;-85
2021/12/13 13:00:05;;;;;;;11.27;7.25;;;;;;;;;;4915772;29;20071;-83
2021/12/13 13:02:32;;;;;;;10.65;6.82;;;;;;;;;;4958184;29;20011;-84
2021/12/13 13:05:00;;;;;;;12.38;7.05;;;;;;;;;;4932363;29;20032;-85
2021/12/13 13:07:30;;;;;;;12.73;6.65;;;;;;;;;;4940665;29;20107;-84
2021/12/13 13:10:25;;;;;;;14.00;7.18;;;;;;;;;;4948039;29;20110;-85
2021/12/13 13:12:55;;;;;;;11.55;6.78;;;;;;;;;;4960367;29;20027;-85
2021/12/13 13:15:31;;;;;;;10.98;7.10;;;;;;;;;;4960855;29;20023;-84
2021/12/13 13:18:01;;;;;;;11.77;7.70;;;;;;;;;;4942820;29;20023;-85
2021/12/13 13:20:34;;;;;;;12.27;7.30;;;;;;;;;;4942847;29;20031;-85
2021/12/13 13:23:01;;;;;;;15.02;7.65;;;;;;;;;;4961020;29;20488;-85
2021/12/13 13:25:33;;;;;;;11.43;7.20;;;;;;;;;;4926015;29;20027;-85
2021/12/13 13:28:01;;;;;;;12.45;6.72;;;;;;;;;;4922483;29;20517;-84
2021/12/13 13:30:41;;;;;;;9.95;7.18;;;;;;;;;;4922814;29;20028;-84
2021/12/13 13:33:07;;;;;;;13.88;7.22;;;;;;;;;;4941427;29;20386;-85
2021/12/13 13:35:33;;;;;;;11.00;6.53;;;;;;;;;;4923586;29;20525;-83
2021/12/13 13:37:59;;;;;;;13.52;7.15;;;;;;;;;;4921165;29;20494;-86
2021/12/13 13:40:45;;;;;;;11.65;7.20;;;;;;;;;;4924350;29;20498;-85
2021/12/13 13:43:13;;;;;;;10.48;6.45;;;;;;;;;;4920662;29;20020;-86
2021/12/13 13:45:58;;;;;;;9.63;6.28;;;;;;;;;;4946501;29;20573;-87
2021/12/13 13:48:34;;;;;;;10.07;6.40;;;;;;;;;;4928168;29;20011;-85
2021/12/13 13:51:04;;;;;;;9.68;6.65;;;;;;;;;;4920503;29;20062;-85
2021/12/13 13:53:52;;;;;;;9.70;7.03;;;;;;;;;;4939677;29;20024;-85
2021/12/13 13:56:26;;;;;;;9.25;5.95;;;;;;;;;;4928617;29;20035;-84
2021/12/13 13:59:07;;;;;;;10.95;6.65;;;;;;;;;;4953537;29;20046;-84
2021/12/13 14:02:01;;;;;;;11.77;6.25;;;;;;;;;;4947746;29;20027;-85
2021/12/13 14:04:36;;;;;;;7.75;5.70;;;;;;;;;;4921686;29;20023;-86
2021/12/13 14:07:10;;;;;;;7.72;5.90;;;;;;;;;;4920900;29;20034;-87
2021/12/13 14:09:42;;;;;;;8.32;5.85;;;;;;;;;;4937759;29;20027;-86
2021/12/13 14:12:32;;;;;;;9.25;5.35;;;;;;;;;;4938267;29;20040;-86
2021/12/13 14:15:15;;;;;;;8.73;5.18;;;;;;;;;;4928258;29;20027;-86
2021/12/13 14:17:50;;;;;;;8.55;5.18;;;;;;;;;;4917877;29;20163;-86
2021/12/13 14:20:31;;;;;;;9.88;5.88;;;;;;;;;;4915362;29;20023;-86
2021/12/13 14:23:35;;;;;;;10.00;6.05;;;;;;;;;;4939096;29;20508;-87
2021/12/13 14:26:19;;;;;;;9.35;6.20;;;;;;;;;;4900574;29;20028;-87
2021/12/13 14:29:06;;;;;;;8.50;6.25;;;;;;;;;;4923556;29;20039;-85
2021/12/13 14:31:35;;;;;;;10.10;6.88;;;;;;;;;;4907852;29;20400;-86
2021/12/13 14:34:12;;;;;;;10.60;6.38;;;;;;;;;;4917005;29;20060;-86
2021/12/13 14:36:47;;;;;;;9.57;6.45;;;;;;;;;;4900176;29;20028;-86
2021/12/13 14:39:17;;;;;;;9.75;6.45;;;;;;;;;;4918693;29;20051;-86
2021/12/13 14:41:52;;;;;;;11.13;6.80;;;;;;;;;;4900949;29;20032;-86
2021/12/13 14:44:22;;;;;;;9.68;6.78;;;;;;;;;;4925660;29;20473;-86
2021/12/13 14:46:54;;;;;;;12.43;6.32;;;;;;;;;;4921316;29;20035;-86
2021/12/13 14:49:28;;;;;;;9.95;6.43;;;;;;;;;;4927533;29;20056;-86
2021/12/13 14:52:03;;;;;;;9.75;6.63;;;;;;;;;;4956453;29;20035;-86
2021/12/13 14:54:31;;;;;;;8.68;6.47;;;;;;;;;;4938906;29;20130;-86
2021/12/13 14:57:06;;;;;;;11.85;6.85;;;;;;;;;;4938637;29;20046;-87
2021/12/13 14:59:34;;;;;;;10.90;6.95;;;;;;;;;;4938173;29;20047;-85
2021/12/13 15:02:02;;;;;;;10.63;7.35;;;;;;;;;;4939264;29;20122;-86
2021/12/13 15:04:32;;;;;;;11.50;8.18;;;;;;;;;;4938465;29;20091;-87
2021/12/13 15:07:04;;;;;;;11.48;7.43;;;;;;;;;;4955449;29;20051;-86
2021/12/13 15:09:36;;;;;;;11.13;7.68;;;;;;;;;;4955642;29;20027;-86
2021/12/13 15:12:06;;;;;;;14.98;7.43;;;;;;;;;;4956256;29;20035;-86
2021/12/13 15:14:37;;;;;;;12.02;6.90;;;;;;;;;;4955526;29;20438;-85
2021/12/13 15:17:17;;;;;;;11.07;7.35;;;;;;;;;;4937731;29;20623;-87
2021/12/13 15:19:42;;;;;;;12.57;6.80;;;;;;;;;;4955385;29;20112;-85
2021/12/13 15:22:08;;;;;;;9.73;7.32;;;;;;;;;;4955912;29;20125;-87
2021/12/13 15:24:36;;;;;;;13.60;8.18;;;;;;;;;;4939515;29;20079;-85
2021/12/13 15:27:17;;;;;;;10.68;7.32;;;;;;;;;;4938258;29;20027;-87
2021/12/13 15:29:43;;;;;;;13.40;7.30;;;;;;;;;;4919892;29;20088;-86
2021/12/13 15:32:15;;;;;;;11.18;7.18;;;;;;;;;;4921233;29;20114;-86
2021/12/13 15:34:56;;;;;;;8.85;6.57;;;;;;;;;;4904180;29;20028;-87
2021/12/13 15:37:27;;;;;;;10.60;7.05;;;;;;;;;;4921161;29;20062;-86
2021/12/13 15:40:24;;;;;;;10.35;6.55;;;;;;;;;;4904599;29;20031;-87
2021/12/13 15:43:08;;;;;;;10.80;6.40;;;;;;;;;;4889165;29;20032;-85
2021/12/13 15:45:36;;;;;;;8.90;6.50;;;;;;;;;;4904108;29;20046;-87
2021/12/13 15:51:07;;;;;;;8.55;6.20;;;;;;;;;;4921934;29;20035;-86
2021/12/13 15:53:33;;;;;;;7.95;5.38;;;;;;;;;;4913882;29;20459;-86
2021/12/13 15:56:06;;;;;;;10.10;6.35;;;;;;;;;;4922804;29;20383;-86
2021/12/13 15:58:38;;;;;;;10.73;5.95;;;;;;;;;;4951366;29;20023;-88
2021/12/13 16:01:09;;;;;;;9.25;6.25;;;;;;;;;;4929169;29;20746;-86
2021/12/13 16:03:37;;;;;;;9.20;6.53;;;;;;;;;;4934390;29;20032;-85
2021/12/13 16:06:04;;;;;;;9.48;6.03;;;;;;;;;;4942947;29;20027;-87
2021/12/13 16:08:40;;;;;;;7.25;5.50;;;;;;;;;;4941046;29;20059;-86
2021/12/13 16:11:07;;;;;;;8.98;5.88;;;;;;;;;;4942049;29;20058;-86
2021/12/13 16:13:32;;;;;;;10.77;5.82;;;;;;;;;;4938278;29;20020;-86
2021/12/13 16:15:58;;;;;;;9.35;6.15;;;;;;;;;;4939156;29;20038;-86
2021/12/13 16:18:27;;;;;;;7.10;5.13;;;;;;;;;;4937326;29;20023;-85
2021/12/13 16:20:53;;;;;;;7.18;5.50;;;;;;;;;;4925994;29;20023;-87
2021/12/13 16:23:22;;;;;;;9.68;6.10;;;;;;;;;;4924500;29;20030;-86
2021/12/13 16:26:08;;;;;;;10.20;6.55;;;;;;;;;;4962375;29;20019;-85